Terminal Aerodrome Forecast
Issued by NWS

Home | Current Version | Previous Version | Graphics & Text | Print | Product List | Glossary Off
Versions: 1 2 3 4 5 6 7 8 9 10 11 12 13 14 15 16 17 18 19 20 21 22 23 24 25 26 27 28 29 30 31 32 33 34 35 36 37 38 39 40

000
FTUS43 KDDC 251500 AAB
TAFHYS
TAF AMD
KHYS 251521Z 2515/2612 08014KT P6SM FEW090
     FM251900 12010KT P6SM BKN090
     FM252000 15014G20KT P6SM BKN060=

USA.gov is the U.S. government's official web portal to all federal, state and local government web resources and services.